sensor_id;sensor_type;location;lat;lon;timestamp;P1;durP1;ratioP1;P2;durP2;ratioP2
76723;SDS011;65650;53.126;17.950;2023-01-16T00:01:46;4.40;;;1.60;;
76723;SDS011;65650;53.126;17.950;2023-01-16T00:04:15;8.80;;;2.50;;
76723;SDS011;65650;53.126;17.950;2023-01-16T00:06:42;4.00;;;1.00;;
76723;SDS011;65650;53.126;17.950;2023-01-16T00:09:08;5.40;;;1.30;;
76723;SDS011;65650;53.126;17.950;2023-01-16T00:11:35;5.40;;;1.10;;
76723;SDS011;65650;53.126;17.950;2023-01-16T00:14:01;3.00;;;0.90;;
76723;SDS011;65650;53.126;17.950;2023-01-16T00:16:29;4.10;;;0.90;;
76723;SDS011;65650;53.126;17.950;2023-01-16T00:18:57;4.10;;;1.20;;
76723;SDS011;65650;53.126;17.950;2023-01-16T00:21:23;2.10;;;1.20;;
76723;SDS011;65650;53.126;17.950;2023-01-16T00:23:56;1.90;;;1.00;;
76723;SDS011;65650;53.126;17.950;2023-01-16T00:26:24;3.40;;;1.40;;
76723;SDS011;65650;53.126;17.950;2023-01-16T00:28:53;3.40;;;1.00;;
76723;SDS011;65650;53.126;17.950;2023-01-16T00:31:20;2.40;;;0.80;;
76723;SDS011;65650;53.126;17.950;2023-01-16T00:33:49;4.10;;;1.00;;
76723;SDS011;65650;53.126;17.950;2023-01-16T00:36:16;4.80;;;1.20;;
76723;SDS011;65650;53.126;17.950;2023-01-16T00:38:43;4.70;;;1.40;;
76723;SDS011;65650;53.126;17.950;2023-01-16T00:41:10;3.60;;;1.30;;
76723;SDS011;65650;53.126;17.950;2023-01-16T00:43:36;2.70;;;0.90;;
76723;SDS011;65650;53.126;17.950;2023-01-16T00:46:04;5.00;;;1.50;;
76723;SDS011;65650;53.126;17.950;2023-01-16T00:48:30;6.50;;;1.30;;
76723;SDS011;65650;53.126;17.950;2023-01-16T00:50:57;6.60;;;1.50;;
76723;SDS011;65650;53.126;17.950;2023-01-16T00:53:23;2.60;;;1.10;;
76723;SDS011;65650;53.126;17.950;2023-01-16T00:55:50;2.70;;;1.10;;
76723;SDS011;65650;53.126;17.950;2023-01-16T00:58:18;8.80;;;1.60;;
76723;SDS011;65650;53.126;17.950;2023-01-16T01:00:45;2.10;;;1.00;;
76723;SDS011;65650;53.126;17.950;2023-01-16T01:03:12;4.80;;;1.40;;
76723;SDS011;65650;53.126;17.950;2023-01-16T01:05:39;3.10;;;0.90;;
76723;SDS011;65650;53.126;17.950;2023-01-16T01:08:05;4.60;;;0.90;;
76723;SDS011;65650;53.126;17.950;2023-01-16T01:10:32;4.50;;;1.20;;
76723;SDS011;65650;53.126;17.950;2023-01-16T01:13:02;1.70;;;0.90;;
76723;SDS011;65650;53.126;17.950;2023-01-16T01:15:29;4.20;;;1.20;;
76723;SDS011;65650;53.126;17.950;2023-01-16T01:17:55;3.50;;;1.20;;
76723;SDS011;65650;53.126;17.950;2023-01-16T01:20:22;6.10;;;1.50;;
76723;SDS011;65650;53.126;17.950;2023-01-16T01:22:48;3.30;;;1.20;;
76723;SDS011;65650;53.126;17.950;2023-01-16T01:25:15;5.50;;;1.20;;
76723;SDS011;65650;53.126;17.950;2023-01-16T01:27:42;3.00;;;0.90;;
76723;SDS011;65650;53.126;17.950;2023-01-16T01:30:08;3.60;;;1.30;;
76723;SDS011;65650;53.126;17.950;2023-01-16T01:32:35;3.70;;;1.20;;
76723;SDS011;65650;53.126;17.950;2023-01-16T01:35:05;1.80;;;1.00;;
76723;SDS011;65650;53.126;17.950;2023-01-16T01:37:33;2.60;;;1.30;;
76723;SDS011;65650;53.126;17.950;2023-01-16T01:40:00;3.60;;;1.30;;
76723;SDS011;65650;53.126;17.950;2023-01-16T01:42:27;2.70;;;1.10;;
76723;SDS011;65650;53.126;17.950;2023-01-16T01:50:57;3.40;;;1.00;;
76723;SDS011;65650;53.126;17.950;2023-01-16T01:53:41;6.80;;;1.20;;
76723;SDS011;65650;53.126;17.950;2023-01-16T01:56:30;2.20;;;1.20;;
76723;SDS011;65650;53.126;17.950;2023-01-16T01:59:07;2.70;;;0.80;;
76723;SDS011;65650;53.126;17.950;2023-01-16T02:01:38;2.30;;;0.80;;
76723;SDS011;65650;53.126;17.950;2023-01-16T02:04:27;3.60;;;1.40;;
76723;SDS011;65650;53.126;17.950;2023-01-16T02:06:57;5.00;;;1.40;;
76723;SDS011;65650;53.126;17.950;2023-01-16T02:09:27;3.60;;;1.10;;
76723;SDS011;65650;53.126;17.950;2023-01-16T02:11:55;4.20;;;1.00;;
76723;SDS011;65650;53.126;17.950;2023-01-16T02:14:28;2.50;;;1.10;;
76723;SDS011;65650;53.126;17.950;2023-01-16T02:17:08;6.10;;;1.90;;
76723;SDS011;65650;53.126;17.950;2023-01-16T02:22:47;4.20;;;1.20;;
76723;SDS011;65650;53.126;17.950;2023-01-16T02:31:10;2.50;;;1.00;;
76723;SDS011;65650;53.126;17.950;2023-01-16T02:42:10;4.20;;;0.80;;
76723;SDS011;65650;53.126;17.950;2023-01-16T02:44:48;2.30;;;1.00;;
76723;SDS011;65650;53.126;17.950;2023-01-16T02:47:39;3.30;;;0.90;;
76723;SDS011;65650;53.126;17.950;2023-01-16T02:53:03;2.50;;;0.90;;
76723;SDS011;65650;53.126;17.950;2023-01-16T02:58:17;4.90;;;1.10;;
76723;SDS011;65650;53.126;17.950;2023-01-16T03:00:52;3.10;;;0.80;;
76723;SDS011;65650;53.126;17.950;2023-01-16T03:03:28;6.70;;;1.30;;
76723;SDS011;65650;53.126;17.950;2023-01-16T03:05:59;2.50;;;0.90;;
76723;SDS011;65650;53.126;17.950;2023-01-16T03:08:44;4.70;;;1.40;;
76723;SDS011;65650;53.126;17.950;2023-01-16T03:11:24;3.40;;;1.10;;
76723;SDS011;65650;53.126;17.950;2023-01-16T03:19:54;2.50;;;1.10;;
76723;SDS011;65650;53.126;17.950;2023-01-16T03:25:23;3.60;;;1.30;;
76723;SDS011;65650;53.126;17.950;2023-01-16T03:36:58;3.00;;;1.10;;
76723;SDS011;65650;53.126;17.950;2023-01-16T03:39:30;3.50;;;1.20;;
76723;SDS011;65650;53.126;17.950;2023-01-16T03:42:12;1.50;;;0.80;;
76723;SDS011;65650;53.126;17.950;2023-01-16T03:44:48;4.00;;;1.30;;
76723;SDS011;65650;53.126;17.950;2023-01-16T03:47:21;3.40;;;1.10;;
76723;SDS011;65650;53.126;17.950;2023-01-16T03:49:54;3.20;;;1.20;;
76723;SDS011;65650;53.126;17.950;2023-01-16T03:52:27;4.40;;;1.10;;
76723;SDS011;65650;53.126;17.950;2023-01-16T03:55:21;4.50;;;1.10;;
76723;SDS011;65650;53.126;17.950;2023-01-16T03:58:02;1.50;;;1.00;;
76723;SDS011;65650;53.126;17.950;2023-01-16T04:00:37;2.50;;;0.90;;
76723;SDS011;65650;53.126;17.950;2023-01-16T04:03:16;1.20;;;0.70;;
76723;SDS011;65650;53.126;17.950;2023-01-16T04:05:59;2.30;;;1.20;;
76723;SDS011;65650;53.126;17.950;2023-01-16T04:08:34;4.50;;;1.50;;
76723;SDS011;65650;53.126;17.950;2023-01-16T04:11:02;2.70;;;1.20;;
76723;SDS011;65650;53.126;17.950;2023-01-16T04:13:34;3.20;;;1.10;;
76723;SDS011;65650;53.126;17.950;2023-01-16T04:16:06;3.80;;;1.30;;
76723;SDS011;65650;53.126;17.950;2023-01-16T04:18:36;4.00;;;1.20;;
76723;SDS011;65650;53.126;17.950;2023-01-16T04:21:04;2.40;;;0.90;;
76723;SDS011;65650;53.126;17.950;2023-01-16T04:23:32;3.10;;;1.10;;
76723;SDS011;65650;53.126;17.950;2023-01-16T04:25:59;2.10;;;1.00;;
76723;SDS011;65650;53.126;17.950;2023-01-16T04:28:26;2.50;;;1.00;;
76723;SDS011;65650;53.126;17.950;2023-01-16T04:30:52;2.00;;;1.10;;
76723;SDS011;65650;53.126;17.950;2023-01-16T04:33:19;3.20;;;1.20;;
76723;SDS011;65650;53.126;17.950;2023-01-16T04:35:46;2.00;;;0.80;;
76723;SDS011;65650;53.126;17.950;2023-01-16T04:38:13;3.30;;;1.30;;
76723;SDS011;65650;53.126;17.950;2023-01-16T04:40:39;5.40;;;1.30;;
76723;SDS011;65650;53.126;17.950;2023-01-16T04:43:06;4.60;;;1.50;;
76723;SDS011;65650;53.126;17.950;2023-01-16T04:45:32;3.90;;;1.40;;
76723;SDS011;65650;53.126;17.950;2023-01-16T04:47:59;2.70;;;1.30;;
76723;SDS011;65650;53.126;17.950;2023-01-16T04:50:25;2.80;;;1.20;;
76723;SDS011;65650;53.126;17.950;2023-01-16T04:52:52;2.40;;;1.10;;
76723;SDS011;65650;53.126;17.950;2023-01-16T04:55:19;1.70;;;0.80;;
76723;SDS011;65650;53.126;17.950;2023-01-16T04:57:46;2.90;;;1.10;;
76723;SDS011;65650;53.126;17.950;2023-01-16T05:00:13;3.10;;;1.40;;
76723;SDS011;65650;53.126;17.950;2023-01-16T05:02:41;2.30;;;0.90;;
76723;SDS011;65650;53.126;17.950;2023-01-16T05:05:07;3.50;;;1.40;;
76723;SDS011;65650;53.126;17.950;2023-01-16T05:07:34;3.80;;;1.20;;
76723;SDS011;65650;53.126;17.950;2023-01-16T05:10:01;3.10;;;1.40;;
76723;SDS011;65650;53.126;17.950;2023-01-16T05:12:28;5.00;;;1.60;;
76723;SDS011;65650;53.126;17.950;2023-01-16T05:14:55;2.10;;;1.10;;
76723;SDS011;65650;53.126;17.950;2023-01-16T05:17:21;3.10;;;1.30;;
76723;SDS011;65650;53.126;17.950;2023-01-16T05:19:51;6.70;;;1.40;;
76723;SDS011;65650;53.126;17.950;2023-01-16T05:22:18;4.60;;;1.40;;
76723;SDS011;65650;53.126;17.950;2023-01-16T05:24:44;3.70;;;1.50;;
76723;SDS011;65650;53.126;17.950;2023-01-16T05:27:11;3.60;;;1.40;;
76723;SDS011;65650;53.126;17.950;2023-01-16T05:29:37;3.90;;;1.20;;
76723;SDS011;65650;53.126;17.950;2023-01-16T05:32:04;3.60;;;1.60;;
76723;SDS011;65650;53.126;17.950;2023-01-16T05:34:30;4.10;;;1.90;;
76723;SDS011;65650;53.126;17.950;2023-01-16T05:36:57;7.00;;;2.20;;
76723;SDS011;65650;53.126;17.950;2023-01-16T05:39:23;13.00;;;4.30;;
76723;SDS011;65650;53.126;17.950;2023-01-16T05:41:50;9.40;;;2.90;;
76723;SDS011;65650;53.126;17.950;2023-01-16T05:44:16;5.40;;;2.10;;
76723;SDS011;65650;53.126;17.950;2023-01-16T05:46:43;4.80;;;2.00;;
76723;SDS011;65650;53.126;17.950;2023-01-16T05:49:10;5.90;;;2.40;;
76723;SDS011;65650;53.126;17.950;2023-01-16T05:51:38;7.80;;;2.30;;
76723;SDS011;65650;53.126;17.950;2023-01-16T05:54:04;8.30;;;2.60;;
76723;SDS011;65650;53.126;17.950;2023-01-16T05:56:31;6.40;;;2.70;;
76723;SDS011;65650;53.126;17.950;2023-01-16T05:58:57;7.90;;;2.50;;
76723;SDS011;65650;53.126;17.950;2023-01-16T06:01:24;6.80;;;2.40;;
76723;SDS011;65650;53.126;17.950;2023-01-16T06:03:50;5.50;;;1.80;;
76723;SDS011;65650;53.126;17.950;2023-01-16T06:06:17;9.70;;;3.10;;
76723;SDS011;65650;53.126;17.950;2023-01-16T06:08:43;9.40;;;3.00;;
76723;SDS011;65650;53.126;17.950;2023-01-16T06:11:12;7.50;;;2.50;;
76723;SDS011;65650;53.126;17.950;2023-01-16T06:13:39;7.60;;;2.70;;
76723;SDS011;65650;53.126;17.950;2023-01-16T06:16:05;5.00;;;1.90;;
76723;SDS011;65650;53.126;17.950;2023-01-16T06:18:32;6.20;;;2.20;;
76723;SDS011;65650;53.126;17.950;2023-01-16T06:20:59;7.20;;;2.20;;
76723;SDS011;65650;53.126;17.950;2023-01-16T06:23:25;8.20;;;3.00;;
76723;SDS011;65650;53.126;17.950;2023-01-16T06:25:52;15.40;;;4.80;;
76723;SDS011;65650;53.126;17.950;2023-01-16T06:28:18;22.50;;;7.90;;
76723;SDS011;65650;53.126;17.950;2023-01-16T06:30:49;39.00;;;13.50;;
76723;SDS011;65650;53.126;17.950;2023-01-16T06:33:17;23.50;;;7.90;;
76723;SDS011;65650;53.126;17.950;2023-01-16T06:35:43;15.70;;;5.40;;
76723;SDS011;65650;53.126;17.950;2023-01-16T06:38:10;11.40;;;4.00;;
76723;SDS011;65650;53.126;17.950;2023-01-16T06:40:36;6.70;;;2.60;;
76723;SDS011;65650;53.126;17.950;2023-01-16T06:43:03;9.40;;;2.80;;
76723;SDS011;65650;53.126;17.950;2023-01-16T06:45:29;7.70;;;2.40;;
76723;SDS011;65650;53.126;17.950;2023-01-16T06:47:56;8.20;;;2.50;;
76723;SDS011;65650;53.126;17.950;2023-01-16T06:50:22;7.80;;;2.50;;
76723;SDS011;65650;53.126;17.950;2023-01-16T06:52:49;6.80;;;2.70;;
76723;SDS011;65650;53.126;17.950;2023-01-16T06:55:16;8.20;;;2.20;;
76723;SDS011;65650;53.126;17.950;2023-01-16T06:57:42;6.20;;;2.50;;
76723;SDS011;65650;53.126;17.950;2023-01-16T07:00:09;7.80;;;2.90;;
76723;SDS011;65650;53.126;17.950;2023-01-16T07:02:36;9.20;;;3.40;;
76723;SDS011;65650;53.126;17.950;2023-01-16T07:05:06;7.20;;;2.50;;
76723;SDS011;65650;53.126;17.950;2023-01-16T07:07:34;7.40;;;2.60;;
76723;SDS011;65650;53.126;17.950;2023-01-16T07:10:01;5.90;;;2.10;;
76723;SDS011;65650;53.126;17.950;2023-01-16T07:12:29;6.60;;;2.40;;
76723;SDS011;65650;53.126;17.950;2023-01-16T07:14:55;5.40;;;1.90;;
76723;SDS011;65650;53.126;17.950;2023-01-16T07:17:41;5.30;;;2.20;;
76723;SDS011;65650;53.126;17.950;2023-01-16T07:20:26;6.20;;;2.60;;
76723;SDS011;65650;53.126;17.950;2023-01-16T07:23:31;8.60;;;2.70;;
76723;SDS011;65650;53.126;17.950;2023-01-16T07:26:01;4.50;;;2.00;;
76723;SDS011;65650;53.126;17.950;2023-01-16T07:28:30;6.10;;;2.60;;
76723;SDS011;65650;53.126;17.950;2023-01-16T07:30:57;3.90;;;1.60;;
76723;SDS011;65650;53.126;17.950;2023-01-16T07:33:24;4.00;;;1.90;;
76723;SDS011;65650;53.126;17.950;2023-01-16T07:35:51;6.80;;;2.70;;
76723;SDS011;65650;53.126;17.950;2023-01-16T07:38:17;5.40;;;2.50;;
76723;SDS011;65650;53.126;17.950;2023-01-16T07:40:44;7.70;;;2.80;;
76723;SDS011;65650;53.126;17.950;2023-01-16T07:43:10;9.40;;;3.10;;
76723;SDS011;65650;53.126;17.950;2023-01-16T07:45:37;10.40;;;3.70;;
76723;SDS011;65650;53.126;17.950;2023-01-16T07:48:04;9.90;;;3.40;;
76723;SDS011;65650;53.126;17.950;2023-01-16T07:50:31;11.50;;;3.20;;
76723;SDS011;65650;53.126;17.950;2023-01-16T07:52:57;12.00;;;3.60;;
76723;SDS011;65650;53.126;17.950;2023-01-16T07:55:24;8.10;;;3.30;;
76723;SDS011;65650;53.126;17.950;2023-01-16T07:57:51;13.00;;;4.00;;
76723;SDS011;65650;53.126;17.950;2023-01-16T08:00:20;12.30;;;4.40;;
76723;SDS011;65650;53.126;17.950;2023-01-16T08:02:47;13.20;;;4.10;;
76723;SDS011;65650;53.126;17.950;2023-01-16T08:05:14;13.70;;;4.60;;
76723;SDS011;65650;53.126;17.950;2023-01-16T08:07:40;10.10;;;3.80;;
76723;SDS011;65650;53.126;17.950;2023-01-16T08:10:08;8.80;;;3.50;;
76723;SDS011;65650;53.126;17.950;2023-01-16T08:12:36;13.30;;;4.80;;
76723;SDS011;65650;53.126;17.950;2023-01-16T08:15:04;9.40;;;3.70;;
76723;SDS011;65650;53.126;17.950;2023-01-16T08:17:31;13.00;;;4.20;;
76723;SDS011;65650;53.126;17.950;2023-01-16T08:19:58;10.50;;;3.90;;
76723;SDS011;65650;53.126;17.950;2023-01-16T08:22:24;9.30;;;3.20;;
76723;SDS011;65650;53.126;17.950;2023-01-16T08:24:51;9.40;;;3.60;;
76723;SDS011;65650;53.126;17.950;2023-01-16T08:27:17;10.60;;;4.70;;
76723;SDS011;65650;53.126;17.950;2023-01-16T08:29:45;9.00;;;3.70;;
76723;SDS011;65650;53.126;17.950;2023-01-16T08:32:11;13.50;;;4.70;;
76723;SDS011;65650;53.126;17.950;2023-01-16T08:34:38;8.30;;;2.90;;
76723;SDS011;65650;53.126;17.950;2023-01-16T08:37:04;9.80;;;3.60;;
76723;SDS011;65650;53.126;17.950;2023-01-16T08:39:33;8.10;;;3.20;;
76723;SDS011;65650;53.126;17.950;2023-01-16T08:42:00;7.30;;;3.00;;
76723;SDS011;65650;53.126;17.950;2023-01-16T08:44:45;10.60;;;3.90;;
76723;SDS011;65650;53.126;17.950;2023-01-16T08:47:31;7.00;;;2.80;;
76723;SDS011;65650;53.126;17.950;2023-01-16T08:50:16;7.40;;;3.00;;
76723;SDS011;65650;53.126;17.950;2023-01-16T08:53:03;6.50;;;2.60;;
76723;SDS011;65650;53.126;17.950;2023-01-16T08:55:31;11.20;;;4.10;;
76723;SDS011;65650;53.126;17.950;2023-01-16T08:57:58;6.90;;;2.90;;
76723;SDS011;65650;53.126;17.950;2023-01-16T09:00:26;9.30;;;3.00;;
76723;SDS011;65650;53.126;17.950;2023-01-16T09:02:53;9.60;;;4.10;;
76723;SDS011;65650;53.126;17.950;2023-01-16T09:05:21;13.00;;;4.10;;
76723;SDS011;65650;53.126;17.950;2023-01-16T09:07:48;10.90;;;4.00;;
76723;SDS011;65650;53.126;17.950;2023-01-16T09:10:15;15.00;;;4.60;;
76723;SDS011;65650;53.126;17.950;2023-01-16T09:12:42;14.80;;;5.20;;
76723;SDS011;65650;53.126;17.950;2023-01-16T09:15:28;9.70;;;3.60;;
76723;SDS011;65650;53.126;17.950;2023-01-16T09:17:54;20.20;;;6.50;;
76723;SDS011;65650;53.126;17.950;2023-01-16T09:20:21;13.50;;;4.60;;
76723;SDS011;65650;53.126;17.950;2023-01-16T09:22:47;12.80;;;4.50;;
76723;SDS011;65650;53.126;17.950;2023-01-16T09:25:14;16.50;;;5.50;;
76723;SDS011;65650;53.126;17.950;2023-01-16T09:27:41;11.00;;;4.70;;
76723;SDS011;65650;53.126;17.950;2023-01-16T09:30:12;11.90;;;4.20;;
76723;SDS011;65650;53.126;17.950;2023-01-16T09:32:39;13.20;;;6.00;;
76723;SDS011;65650;53.126;17.950;2023-01-16T09:35:05;12.10;;;4.90;;
76723;SDS011;65650;53.126;17.950;2023-01-16T09:37:32;9.90;;;4.10;;
76723;SDS011;65650;53.126;17.950;2023-01-16T09:39:59;17.20;;;7.20;;
76723;SDS011;65650;53.126;17.950;2023-01-16T09:42:31;10.20;;;4.20;;
76723;SDS011;65650;53.126;17.950;2023-01-16T09:45:22;14.60;;;5.70;;
76723;SDS011;65650;53.126;17.950;2023-01-16T09:47:57;24.70;;;9.60;;
76723;SDS011;65650;53.126;17.950;2023-01-16T09:53:01;12.90;;;4.40;;
76723;SDS011;65650;53.126;17.950;2023-01-16T09:55:50;19.60;;;6.50;;
76723;SDS011;65650;53.126;17.950;2023-01-16T09:58:42;14.50;;;5.80;;
76723;SDS011;65650;53.126;17.950;2023-01-16T10:12:50;9.50;;;3.90;;
76723;SDS011;65650;53.126;17.950;2023-01-16T10:15:24;9.70;;;3.50;;
76723;SDS011;65650;53.126;17.950;2023-01-16T10:18:21;6.10;;;2.70;;
76723;SDS011;65650;53.126;17.950;2023-01-16T10:21:09;9.40;;;3.40;;
76723;SDS011;65650;53.126;17.950;2023-01-16T10:32:14;7.70;;;3.00;;
76723;SDS011;65650;53.126;17.950;2023-01-16T10:37:39;6.90;;;2.70;;
76723;SDS011;65650;53.126;17.950;2023-01-16T10:40:29;6.00;;;2.90;;
76723;SDS011;65650;53.126;17.950;2023-01-16T10:43:03;6.50;;;2.20;;
76723;SDS011;65650;53.126;17.950;2023-01-16T10:45:55;4.70;;;2.00;;
76723;SDS011;65650;53.126;17.950;2023-01-16T10:48:49;12.20;;;4.30;;
76723;SDS011;65650;53.126;17.950;2023-01-16T10:51:34;7.30;;;2.60;;
76723;SDS011;65650;53.126;17.950;2023-01-16T10:54:00;9.10;;;3.20;;
76723;SDS011;65650;53.126;17.950;2023-01-16T10:56:28;8.80;;;2.80;;
76723;SDS011;65650;53.126;17.950;2023-01-16T10:58:57;9.80;;;3.40;;
76723;SDS011;65650;53.126;17.950;2023-01-16T11:01:24;8.90;;;4.10;;
76723;SDS011;65650;53.126;17.950;2023-01-16T11:03:52;9.70;;;4.10;;
76723;SDS011;65650;53.126;17.950;2023-01-16T11:06:26;10.40;;;4.10;;
76723;SDS011;65650;53.126;17.950;2023-01-16T11:08:57;8.70;;;4.00;;
76723;SDS011;65650;53.126;17.950;2023-01-16T11:11:28;10.10;;;4.60;;
76723;SDS011;65650;53.126;17.950;2023-01-16T11:14:19;9.90;;;4.10;;
76723;SDS011;65650;53.126;17.950;2023-01-16T11:17:12;11.40;;;5.30;;
76723;SDS011;65650;53.126;17.950;2023-01-16T11:20:08;11.70;;;5.20;;
76723;SDS011;65650;53.126;17.950;2023-01-16T11:22:39;13.10;;;5.60;;
76723;SDS011;65650;53.126;17.950;2023-01-16T11:25:06;9.90;;;4.80;;
76723;SDS011;65650;53.126;17.950;2023-01-16T11:27:44;8.80;;;4.60;;
76723;SDS011;65650;53.126;17.950;2023-01-16T11:30:20;10.40;;;5.50;;
76723;SDS011;65650;53.126;17.950;2023-01-16T11:32:53;8.90;;;4.80;;
76723;SDS011;65650;53.126;17.950;2023-01-16T11:35:25;9.60;;;4.20;;
76723;SDS011;65650;53.126;17.950;2023-01-16T11:37:57;9.30;;;4.20;;
76723;SDS011;65650;53.126;17.950;2023-01-16T11:40:26;9.00;;;3.40;;
76723;SDS011;65650;53.126;17.950;2023-01-16T11:42:56;10.30;;;4.60;;
76723;SDS011;65650;53.126;17.950;2023-01-16T11:45:44;10.40;;;4.30;;
76723;SDS011;65650;53.126;17.950;2023-01-16T11:48:35;8.80;;;3.90;;
76723;SDS011;65650;53.126;17.950;2023-01-16T11:51:14;9.00;;;4.50;;
76723;SDS011;65650;53.126;17.950;2023-01-16T11:53:44;8.00;;;4.40;;
76723;SDS011;65650;53.126;17.950;2023-01-16T12:01:36;9.90;;;4.50;;
76723;SDS011;65650;53.126;17.950;2023-01-16T12:04:44;13.00;;;5.60;;
76723;SDS011;65650;53.126;17.950;2023-01-16T12:07:52;13.30;;;4.50;;
76723;SDS011;65650;53.126;17.950;2023-01-16T12:13:04;17.10;;;6.90;;
76723;SDS011;65650;53.126;17.950;2023-01-16T12:21:41;13.80;;;6.20;;
76723;SDS011;65650;53.126;17.950;2023-01-16T12:24:31;20.90;;;8.20;;
76723;SDS011;65650;53.126;17.950;2023-01-16T12:27:08;12.20;;;5.50;;
76723;SDS011;65650;53.126;17.950;2023-01-16T12:32:55;12.40;;;5.20;;
76723;SDS011;65650;53.126;17.950;2023-01-16T12:38:24;12.00;;;4.10;;
76723;SDS011;65650;53.126;17.950;2023-01-16T12:41:14;11.80;;;4.80;;
76723;SDS011;65650;53.126;17.950;2023-01-16T12:58:19;14.50;;;6.80;;
76723;SDS011;65650;53.126;17.950;2023-01-16T13:01:07;16.00;;;6.50;;
76723;SDS011;65650;53.126;17.950;2023-01-16T13:03:52;18.90;;;6.70;;
76723;SDS011;65650;53.126;17.950;2023-01-16T13:06:34;13.50;;;6.00;;
76723;SDS011;65650;53.126;17.950;2023-01-16T13:09:11;16.20;;;5.50;;
76723;SDS011;65650;53.126;17.950;2023-01-16T13:11:56;11.80;;;5.20;;
76723;SDS011;65650;53.126;17.950;2023-01-16T13:15:04;14.90;;;5.30;;
76723;SDS011;65650;53.126;17.950;2023-01-16T13:17:39;11.50;;;5.70;;
76723;SDS011;65650;53.126;17.950;2023-01-16T13:20:09;15.50;;;6.30;;
76723;SDS011;65650;53.126;17.950;2023-01-16T13:22:42;11.20;;;5.40;;
76723;SDS011;65650;53.126;17.950;2023-01-16T13:27:52;14.10;;;6.70;;
76723;SDS011;65650;53.126;17.950;2023-01-16T13:30:23;13.90;;;5.90;;
76723;SDS011;65650;53.126;17.950;2023-01-16T13:32:52;13.90;;;6.20;;
76723;SDS011;65650;53.126;17.950;2023-01-16T13:35:27;14.90;;;7.30;;
76723;SDS011;65650;53.126;17.950;2023-01-16T13:43:38;19.50;;;9.90;;
76723;SDS011;65650;53.126;17.950;2023-01-16T13:46:26;14.30;;;6.80;;
76723;SDS011;65650;53.126;17.950;2023-01-16T13:48:56;16.30;;;6.60;;
76723;SDS011;65650;53.126;17.950;2023-01-16T13:51:26;22.10;;;8.40;;
76723;SDS011;65650;53.126;17.950;2023-01-16T13:53:57;24.50;;;9.40;;
76723;SDS011;65650;53.126;17.950;2023-01-16T13:56:29;17.70;;;6.90;;
76723;SDS011;65650;53.126;17.950;2023-01-16T14:01:35;15.40;;;7.00;;
76723;SDS011;65650;53.126;17.950;2023-01-16T14:12:43;21.20;;;10.40;;
76723;SDS011;65650;53.126;17.950;2023-01-16T14:15:29;14.60;;;7.80;;
76723;SDS011;65650;53.126;17.950;2023-01-16T14:18:40;16.80;;;6.70;;
76723;SDS011;65650;53.126;17.950;2023-01-16T14:21:24;17.10;;;7.70;;
76723;SDS011;65650;53.126;17.950;2023-01-16T14:23:53;15.90;;;7.50;;
76723;SDS011;65650;53.126;17.950;2023-01-16T14:32:19;19.10;;;9.10;;
76723;SDS011;65650;53.126;17.950;2023-01-16T14:34:51;23.00;;;8.70;;
76723;SDS011;65650;53.126;17.950;2023-01-16T14:40:04;14.80;;;6.50;;
76723;SDS011;65650;53.126;17.950;2023-01-16T14:45:40;17.30;;;7.20;;
76723;SDS011;65650;53.126;17.950;2023-01-16T14:48:34;18.60;;;8.20;;
76723;SDS011;65650;53.126;17.950;2023-01-16T14:51:28;21.10;;;10.30;;
76723;SDS011;65650;53.126;17.950;2023-01-16T14:54:33;24.90;;;11.50;;
76723;SDS011;65650;53.126;17.950;2023-01-16T14:57:22;25.70;;;12.60;;
76723;SDS011;65650;53.126;17.950;2023-01-16T15:02:37;26.30;;;11.70;;
76723;SDS011;65650;53.126;17.950;2023-01-16T15:05:08;23.90;;;11.30;;
76723;SDS011;65650;53.126;17.950;2023-01-16T15:07:42;26.30;;;10.70;;
76723;SDS011;65650;53.126;17.950;2023-01-16T15:10:12;29.30;;;12.40;;
76723;SDS011;65650;53.126;17.950;2023-01-16T15:12:45;24.80;;;11.50;;
76723;SDS011;65650;53.126;17.950;2023-01-16T15:17:49;26.60;;;12.00;;
76723;SDS011;65650;53.126;17.950;2023-01-16T15:20:37;51.60;;;25.50;;
76723;SDS011;65650;53.126;17.950;2023-01-16T15:28:31;44.00;;;18.50;;
76723;SDS011;65650;53.126;17.950;2023-01-16T15:31:13;40.00;;;15.20;;
76723;SDS011;65650;53.126;17.950;2023-01-16T15:33:42;39.30;;;16.80;;
76723;SDS011;65650;53.126;17.950;2023-01-16T15:38:50;27.60;;;12.20;;
76723;SDS011;65650;53.126;17.950;2023-01-16T15:41:21;28.30;;;13.10;;
76723;SDS011;65650;53.126;17.950;2023-01-16T15:44:15;25.80;;;12.00;;
76723;SDS011;65650;53.126;17.950;2023-01-16T15:47:05;40.10;;;17.10;;
76723;SDS011;65650;53.126;17.950;2023-01-16T15:49:51;26.10;;;11.60;;
76723;SDS011;65650;53.126;17.950;2023-01-16T15:52:28;31.10;;;13.20;;
76723;SDS011;65650;53.126;17.950;2023-01-16T15:54:57;29.10;;;12.20;;
76723;SDS011;65650;53.126;17.950;2023-01-16T15:57:23;30.20;;;13.50;;
76723;SDS011;65650;53.126;17.950;2023-01-16T15:59:52;27.80;;;11.20;;
76723;SDS011;65650;53.126;17.950;2023-01-16T16:02:24;27.30;;;11.10;;
76723;SDS011;65650;53.126;17.950;2023-01-16T16:04:56;30.10;;;11.70;;
76723;SDS011;65650;53.126;17.950;2023-01-16T16:07:26;37.60;;;13.80;;
76723;SDS011;65650;53.126;17.950;2023-01-16T16:09:54;29.60;;;11.30;;
76723;SDS011;65650;53.126;17.950;2023-01-16T16:12:24;28.20;;;11.00;;
76723;SDS011;65650;53.126;17.950;2023-01-16T16:15:02;23.10;;;9.20;;
76723;SDS011;65650;53.126;17.950;2023-01-16T16:18:15;23.90;;;10.00;;
76723;SDS011;65650;53.126;17.950;2023-01-16T16:20:46;24.70;;;9.80;;
76723;SDS011;65650;53.126;17.950;2023-01-16T16:23:16;26.10;;;11.10;;
76723;SDS011;65650;53.126;17.950;2023-01-16T16:25:48;26.70;;;12.50;;
76723;SDS011;65650;53.126;17.950;2023-01-16T16:30:59;32.70;;;12.90;;
76723;SDS011;65650;53.126;17.950;2023-01-16T16:33:28;23.00;;;10.30;;
76723;SDS011;65650;53.126;17.950;2023-01-16T16:35:57;28.30;;;12.10;;
76723;SDS011;65650;53.126;17.950;2023-01-16T16:38:25;25.30;;;10.60;;
76723;SDS011;65650;53.126;17.950;2023-01-16T16:48:49;37.50;;;14.80;;
76723;SDS011;65650;53.126;17.950;2023-01-16T16:53:56;32.20;;;13.00;;
76723;SDS011;65650;53.126;17.950;2023-01-16T16:56:25;28.10;;;12.50;;
76723;SDS011;65650;53.126;17.950;2023-01-16T16:58:56;26.30;;;11.20;;
76723;SDS011;65650;53.126;17.950;2023-01-16T17:01:23;30.90;;;11.60;;
76723;SDS011;65650;53.126;17.950;2023-01-16T17:03:53;24.90;;;11.70;;
76723;SDS011;65650;53.126;17.950;2023-01-16T17:06:24;23.60;;;10.70;;
76723;SDS011;65650;53.126;17.950;2023-01-16T17:08:53;20.60;;;9.70;;
76723;SDS011;65650;53.126;17.950;2023-01-16T17:11:21;23.10;;;9.80;;
76723;SDS011;65650;53.126;17.950;2023-01-16T17:13:47;30.30;;;12.30;;
76723;SDS011;65650;53.126;17.950;2023-01-16T17:18:45;20.90;;;9.00;;
76723;SDS011;65650;53.126;17.950;2023-01-16T17:21:16;19.70;;;9.20;;
76723;SDS011;65650;53.126;17.950;2023-01-16T17:23:44;18.80;;;9.20;;
76723;SDS011;65650;53.126;17.950;2023-01-16T17:26:11;23.20;;;10.10;;
76723;SDS011;65650;53.126;17.950;2023-01-16T17:28:39;19.90;;;9.60;;
76723;SDS011;65650;53.126;17.950;2023-01-16T17:31:06;22.60;;;10.00;;
76723;SDS011;65650;53.126;17.950;2023-01-16T17:33:40;20.80;;;9.70;;
76723;SDS011;65650;53.126;17.950;2023-01-16T17:36:19;20.80;;;9.60;;
76723;SDS011;65650;53.126;17.950;2023-01-16T17:38:48;21.10;;;8.80;;
76723;SDS011;65650;53.126;17.950;2023-01-16T17:41:16;22.40;;;9.50;;
76723;SDS011;65650;53.126;17.950;2023-01-16T17:43:55;21.50;;;10.10;;
76723;SDS011;65650;53.126;17.950;2023-01-16T17:46:40;27.60;;;11.50;;